Airfield :
LOGIN :

Register | Disclaimer

   EN    FR    IT 

 










Legend :    VFR   Marginal VFR   IFR   Intensive IFR   Very Intensive IFR
Visi :
Ceiling :
>= 8 km
>= 3000ft
5 to 8 km
1000 to 3000 ft
1500m to 5 km
500 to 1000 ft
800 to 1500m
200 to 500 ft
< 800m
< 200 ft
Symbols :   Thunderstorms  Fog  Heavy snow  Heavy precipitations  Wind > 20 kt
SIGMETs :     Misc.  Thunderstorms  Icing  Turbulence  Mountain Waves  Volcanic Ashes






- Airport Elevation : 526 ft
- IATA code : LTN


EGGW - London Luton

CURRENT METAR :
  • 200120Z AUTO 33008KT 9999 NCD 03/M01 Q1025

EXPIRED METARs :
  • 200050Z AUTO 34009KT 310V010 9999 NCD 03/M01 Q1025
  • 200020Z AUTO 33007KT 9999 NCD 03/M01 Q1024
  • 192350Z AUTO 33007KT 300V360 9999 NCD 04/M01 Q1024
  • 192320Z AUTO 35008KT 9999 NCD 04/M01 Q1024
  • 192250Z AUTO 36013G23KT 9999 FEW028 05/M00 Q1024
  • 192220Z AUTO 36010KT 9999 FEW028 OVC042 06/02 Q1024
  • 192150Z AUTO 01007KT 9999 OVC038 06/03 Q1023
  • 192120Z AUTO 02007KT 350V060 9999 OVC037 06/03 Q1023
  • 192050Z AUTO 02005KT 9999 FEW036 BKN046 06/03 Q1023

TAF TAF EGGW
Valid from the 20 at 00:00 until the 21 at 00:00 UTC


192253Z 2000/2024 34012KT 9999 FEW035
ATIS : +44 1582 395 204



MET'MAP, your aeronautical weather chart ! - Copyright ORBIFLY December 2007 - Disclaimer

ORBIFLY MET'MAP TEAM :

Programming & Development : Alexandra Zaïnal
Original concept : Baudouin d'Aumeries
Technical & hardware support : Manuel Goepfert
Assistance : Marc-Olivier Méhu




SOURCES & CREDITS :

   NOAA